sensor_id;sensor_type;location;lat;lon;timestamp;P1;durP1;ratioP1;P2;durP2;ratioP2
20828;SDS011;10575;50.124;8.582;2022-08-21T00:01:57;8.30;;;4.55;;
20828;SDS011;10575;50.124;8.582;2022-08-21T00:04:23;6.80;;;4.82;;
20828;SDS011;10575;50.124;8.582;2022-08-21T00:06:49;8.35;;;4.20;;
20828;SDS011;10575;50.124;8.582;2022-08-21T00:09:16;11.60;;;4.47;;
20828;SDS011;10575;50.124;8.582;2022-08-21T00:11:42;6.38;;;4.53;;
20828;SDS011;10575;50.124;8.582;2022-08-21T00:14:08;7.28;;;4.70;;
20828;SDS011;10575;50.124;8.582;2022-08-21T00:16:35;7.05;;;4.32;;
20828;SDS011;10575;50.124;8.582;2022-08-21T00:19:01;5.55;;;4.10;;
20828;SDS011;10575;50.124;8.582;2022-08-21T00:21:27;7.20;;;4.47;;
20828;SDS011;10575;50.124;8.582;2022-08-21T00:23:53;6.57;;;4.60;;
20828;SDS011;10575;50.124;8.582;2022-08-21T00:26:18;11.80;;;5.00;;
20828;SDS011;10575;50.124;8.582;2022-08-21T00:28:44;7.03;;;4.50;;
20828;SDS011;10575;50.124;8.582;2022-08-21T00:31:11;6.00;;;4.43;;
20828;SDS011;10575;50.124;8.582;2022-08-21T00:33:37;7.28;;;4.93;;
20828;SDS011;10575;50.124;8.582;2022-08-21T00:36:03;6.85;;;4.85;;
20828;SDS011;10575;50.124;8.582;2022-08-21T00:38:28;5.72;;;4.65;;
20828;SDS011;10575;50.124;8.582;2022-08-21T00:40:55;9.48;;;4.45;;
20828;SDS011;10575;50.124;8.582;2022-08-21T00:43:25;8.38;;;4.22;;
20828;SDS011;10575;50.124;8.582;2022-08-21T00:45:53;8.95;;;4.97;;
20828;SDS011;10575;50.124;8.582;2022-08-21T00:48:20;9.02;;;5.40;;
20828;SDS011;10575;50.124;8.582;2022-08-21T00:50:49;8.68;;;5.03;;
20828;SDS011;10575;50.124;8.582;2022-08-21T00:53:18;6.93;;;4.88;;
20828;SDS011;10575;50.124;8.582;2022-08-21T00:55:44;7.60;;;5.82;;
20828;SDS011;10575;50.124;8.582;2022-08-21T00:58:11;10.25;;;5.20;;
20828;SDS011;10575;50.124;8.582;2022-08-21T01:00:39;9.50;;;5.85;;
20828;SDS011;10575;50.124;8.582;2022-08-21T01:03:08;10.00;;;5.95;;
20828;SDS011;10575;50.124;8.582;2022-08-21T01:05:36;8.63;;;5.20;;
20828;SDS011;10575;50.124;8.582;2022-08-21T01:08:03;9.13;;;5.90;;
20828;SDS011;10575;50.124;8.582;2022-08-21T01:10:30;13.00;;;6.28;;
20828;SDS011;10575;50.124;8.582;2022-08-21T01:12:56;9.98;;;6.35;;
20828;SDS011;10575;50.124;8.582;2022-08-21T01:15:24;11.05;;;6.78;;
20828;SDS011;10575;50.124;8.582;2022-08-21T01:17:53;8.35;;;5.80;;
20828;SDS011;10575;50.124;8.582;2022-08-21T01:20:19;8.43;;;5.65;;
20828;SDS011;10575;50.124;8.582;2022-08-21T01:22:45;11.30;;;5.85;;
20828;SDS011;10575;50.124;8.582;2022-08-21T01:25:14;9.13;;;6.47;;
20828;SDS011;10575;50.124;8.582;2022-08-21T01:27:40;9.23;;;6.28;;
20828;SDS011;10575;50.124;8.582;2022-08-21T01:30:11;10.05;;;6.15;;
20828;SDS011;10575;50.124;8.582;2022-08-21T01:32:43;9.65;;;6.28;;
20828;SDS011;10575;50.124;8.582;2022-08-21T01:35:09;7.00;;;5.80;;
20828;SDS011;10575;50.124;8.582;2022-08-21T01:37:36;10.00;;;6.38;;
20828;SDS011;10575;50.124;8.582;2022-08-21T01:40:03;9.43;;;6.28;;
20828;SDS011;10575;50.124;8.582;2022-08-21T01:42:30;8.85;;;6.53;;
20828;SDS011;10575;50.124;8.582;2022-08-21T01:44:55;11.98;;;6.57;;
20828;SDS011;10575;50.124;8.582;2022-08-21T01:47:21;12.60;;;6.78;;
20828;SDS011;10575;50.124;8.582;2022-08-21T01:49:47;8.40;;;6.05;;
20828;SDS011;10575;50.124;8.582;2022-08-21T01:52:13;9.15;;;6.13;;
20828;SDS011;10575;50.124;8.582;2022-08-21T01:54:39;7.95;;;6.25;;
20828;SDS011;10575;50.124;8.582;2022-08-21T01:57:05;9.13;;;6.53;;
20828;SDS011;10575;50.124;8.582;2022-08-21T01:59:30;9.00;;;6.15;;
20828;SDS011;10575;50.124;8.582;2022-08-21T02:01:56;8.68;;;6.10;;
20828;SDS011;10575;50.124;8.582;2022-08-21T02:04:22;11.93;;;6.63;;
20828;SDS011;10575;50.124;8.582;2022-08-21T02:06:48;9.70;;;6.63;;
20828;SDS011;10575;50.124;8.582;2022-08-21T02:09:14;9.93;;;6.43;;
20828;SDS011;10575;50.124;8.582;2022-08-21T02:11:40;11.88;;;7.13;;
20828;SDS011;10575;50.124;8.582;2022-08-21T02:14:07;11.63;;;6.88;;
20828;SDS011;10575;50.124;8.582;2022-08-21T02:16:33;10.63;;;7.07;;
20828;SDS011;10575;50.124;8.582;2022-08-21T02:18:59;10.65;;;6.45;;
20828;SDS011;10575;50.124;8.582;2022-08-21T02:21:25;8.63;;;6.18;;
20828;SDS011;10575;50.124;8.582;2022-08-21T02:23:50;7.55;;;5.88;;
20828;SDS011;10575;50.124;8.582;2022-08-21T02:26:16;11.45;;;5.88;;
20828;SDS011;10575;50.124;8.582;2022-08-21T02:28:42;9.35;;;6.15;;
20828;SDS011;10575;50.124;8.582;2022-08-21T02:31:08;9.23;;;7.07;;
20828;SDS011;10575;50.124;8.582;2022-08-21T02:33:34;7.97;;;6.60;;
20828;SDS011;10575;50.124;8.582;2022-08-21T02:36:01;8.45;;;6.20;;
20828;SDS011;10575;50.124;8.582;2022-08-21T02:38:29;9.93;;;6.63;;
20828;SDS011;10575;50.124;8.582;2022-08-21T02:41:03;9.88;;;5.80;;
20828;SDS011;10575;50.124;8.582;2022-08-21T02:43:33;10.50;;;6.50;;
20828;SDS011;10575;50.124;8.582;2022-08-21T02:45:59;10.43;;;5.95;;
20828;SDS011;10575;50.124;8.582;2022-08-21T02:48:27;7.50;;;5.78;;
20828;SDS011;10575;50.124;8.582;2022-08-21T02:50:55;9.02;;;6.10;;
20828;SDS011;10575;50.124;8.582;2022-08-21T02:53:22;9.35;;;6.90;;
20828;SDS011;10575;50.124;8.582;2022-08-21T02:55:49;10.95;;;6.97;;
20828;SDS011;10575;50.124;8.582;2022-08-21T02:58:16;11.15;;;6.72;;
20828;SDS011;10575;50.124;8.582;2022-08-21T03:00:44;9.23;;;6.88;;
20828;SDS011;10575;50.124;8.582;2022-08-21T03:03:10;9.13;;;6.15;;
20828;SDS011;10575;50.124;8.582;2022-08-21T03:05:36;9.10;;;6.45;;
20828;SDS011;10575;50.124;8.582;2022-08-21T03:08:04;8.80;;;6.35;;
20828;SDS011;10575;50.124;8.582;2022-08-21T03:10:34;8.82;;;6.07;;
20828;SDS011;10575;50.124;8.582;2022-08-21T03:13:00;9.85;;;6.90;;
20828;SDS011;10575;50.124;8.582;2022-08-21T03:15:28;9.93;;;6.30;;
20828;SDS011;10575;50.124;8.582;2022-08-21T03:17:54;11.38;;;6.72;;
20828;SDS011;10575;50.124;8.582;2022-08-21T03:20:22;9.52;;;6.30;;
20828;SDS011;10575;50.124;8.582;2022-08-21T03:22:49;8.98;;;5.75;;
20828;SDS011;10575;50.124;8.582;2022-08-21T03:25:15;8.63;;;6.53;;
20828;SDS011;10575;50.124;8.582;2022-08-21T03:27:40;9.25;;;6.78;;
20828;SDS011;10575;50.124;8.582;2022-08-21T03:30:07;11.77;;;6.85;;
20828;SDS011;10575;50.124;8.582;2022-08-21T03:32:34;11.80;;;6.85;;
20828;SDS011;10575;50.124;8.582;2022-08-21T03:35:01;9.73;;;6.85;;
20828;SDS011;10575;50.124;8.582;2022-08-21T03:37:27;11.20;;;6.95;;
20828;SDS011;10575;50.124;8.582;2022-08-21T03:39:53;8.13;;;6.13;;
20828;SDS011;10575;50.124;8.582;2022-08-21T03:42:19;7.88;;;6.25;;
20828;SDS011;10575;50.124;8.582;2022-08-21T03:44:44;10.93;;;7.28;;
20828;SDS011;10575;50.124;8.582;2022-08-21T03:47:10;9.68;;;6.55;;
20828;SDS011;10575;50.124;8.582;2022-08-21T03:49:36;9.13;;;6.38;;
20828;SDS011;10575;50.124;8.582;2022-08-21T03:52:02;11.88;;;6.90;;
20828;SDS011;10575;50.124;8.582;2022-08-21T03:54:28;10.77;;;6.78;;
20828;SDS011;10575;50.124;8.582;2022-08-21T03:56:54;8.25;;;6.13;;
20828;SDS011;10575;50.124;8.582;2022-08-21T03:59:20;8.55;;;5.95;;
20828;SDS011;10575;50.124;8.582;2022-08-21T04:01:55;9.50;;;6.32;;
20828;SDS011;10575;50.124;8.582;2022-08-21T04:04:22;9.50;;;6.30;;
20828;SDS011;10575;50.124;8.582;2022-08-21T04:06:48;9.07;;;6.43;;
20828;SDS011;10575;50.124;8.582;2022-08-21T04:09:14;9.98;;;6.65;;
20828;SDS011;10575;50.124;8.582;2022-08-21T04:11:41;10.50;;;6.18;;
20828;SDS011;10575;50.124;8.582;2022-08-21T04:14:06;9.07;;;6.82;;
20828;SDS011;10575;50.124;8.582;2022-08-21T04:16:32;10.50;;;6.60;;
20828;SDS011;10575;50.124;8.582;2022-08-21T04:18:57;9.40;;;6.53;;
20828;SDS011;10575;50.124;8.582;2022-08-21T04:21:23;9.88;;;6.53;;
20828;SDS011;10575;50.124;8.582;2022-08-21T04:23:49;10.82;;;6.55;;
20828;SDS011;10575;50.124;8.582;2022-08-21T04:26:14;8.73;;;5.53;;
20828;SDS011;10575;50.124;8.582;2022-08-21T04:28:40;10.90;;;6.13;;
20828;SDS011;10575;50.124;8.582;2022-08-21T04:31:06;7.55;;;6.00;;
20828;SDS011;10575;50.124;8.582;2022-08-21T04:33:33;8.27;;;5.78;;
20828;SDS011;10575;50.124;8.582;2022-08-21T04:35:58;8.82;;;6.32;;
20828;SDS011;10575;50.124;8.582;2022-08-21T04:38:24;7.57;;;5.88;;
20828;SDS011;10575;50.124;8.582;2022-08-21T04:40:49;7.70;;;5.63;;
20828;SDS011;10575;50.124;8.582;2022-08-21T04:43:17;7.75;;;5.40;;
20828;SDS011;10575;50.124;8.582;2022-08-21T04:45:45;8.30;;;6.35;;
20828;SDS011;10575;50.124;8.582;2022-08-21T04:48:13;10.55;;;5.85;;
20828;SDS011;10575;50.124;8.582;2022-08-21T04:50:45;10.45;;;5.60;;
20828;SDS011;10575;50.124;8.582;2022-08-21T04:53:14;11.52;;;7.55;;
20828;SDS011;10575;50.124;8.582;2022-08-21T04:55:46;9.35;;;6.72;;
20828;SDS011;10575;50.124;8.582;2022-08-21T04:58:13;8.05;;;6.45;;
20828;SDS011;10575;50.124;8.582;2022-08-21T05:00:42;8.93;;;5.68;;
20828;SDS011;10575;50.124;8.582;2022-08-21T05:03:09;7.40;;;5.15;;
20828;SDS011;10575;50.124;8.582;2022-08-21T05:05:36;9.43;;;6.13;;
20828;SDS011;10575;50.124;8.582;2022-08-21T05:08:03;10.68;;;6.80;;
20828;SDS011;10575;50.124;8.582;2022-08-21T05:10:32;9.52;;;6.25;;
20828;SDS011;10575;50.124;8.582;2022-08-21T05:12:58;10.25;;;6.07;;
20828;SDS011;10575;50.124;8.582;2022-08-21T05:15:25;10.75;;;6.10;;
20828;SDS011;10575;50.124;8.582;2022-08-21T05:17:50;8.20;;;6.18;;
20828;SDS011;10575;50.124;8.582;2022-08-21T05:20:16;10.88;;;6.43;;
20828;SDS011;10575;50.124;8.582;2022-08-21T05:22:42;10.75;;;6.70;;
20828;SDS011;10575;50.124;8.582;2022-08-21T05:25:08;8.90;;;6.10;;
20828;SDS011;10575;50.124;8.582;2022-08-21T05:27:34;10.93;;;6.80;;
20828;SDS011;10575;50.124;8.582;2022-08-21T05:29:59;10.90;;;6.80;;
20828;SDS011;10575;50.124;8.582;2022-08-21T05:32:25;8.85;;;6.57;;
20828;SDS011;10575;50.124;8.582;2022-08-21T05:34:52;10.63;;;6.97;;
20828;SDS011;10575;50.124;8.582;2022-08-21T05:37:18;8.82;;;6.43;;
20828;SDS011;10575;50.124;8.582;2022-08-21T05:39:44;12.27;;;6.93;;
20828;SDS011;10575;50.124;8.582;2022-08-21T05:42:10;9.52;;;6.10;;
20828;SDS011;10575;50.124;8.582;2022-08-21T05:44:35;8.60;;;5.65;;
20828;SDS011;10575;50.124;8.582;2022-08-21T05:47:04;8.45;;;5.85;;
20828;SDS011;10575;50.124;8.582;2022-08-21T05:49:31;8.50;;;6.03;;
20828;SDS011;10575;50.124;8.582;2022-08-21T05:51:57;7.30;;;5.57;;
20828;SDS011;10575;50.124;8.582;2022-08-21T05:54:22;11.63;;;7.00;;
20828;SDS011;10575;50.124;8.582;2022-08-21T05:56:48;10.63;;;6.70;;
20828;SDS011;10575;50.124;8.582;2022-08-21T05:59:14;10.07;;;7.13;;
20828;SDS011;10575;50.124;8.582;2022-08-21T06:01:40;9.77;;;7.15;;
20828;SDS011;10575;50.124;8.582;2022-08-21T06:04:05;12.38;;;6.63;;
20828;SDS011;10575;50.124;8.582;2022-08-21T06:06:32;7.78;;;6.05;;
20828;SDS011;10575;50.124;8.582;2022-08-21T06:08:58;7.43;;;6.07;;
20828;SDS011;10575;50.124;8.582;2022-08-21T06:11:23;9.07;;;6.25;;
20828;SDS011;10575;50.124;8.582;2022-08-21T06:13:49;9.55;;;5.93;;
20828;SDS011;10575;50.124;8.582;2022-08-21T06:16:15;12.07;;;6.60;;
20828;SDS011;10575;50.124;8.582;2022-08-21T06:18:41;8.95;;;5.40;;
20828;SDS011;10575;50.124;8.582;2022-08-21T06:21:07;10.07;;;6.03;;
20828;SDS011;10575;50.124;8.582;2022-08-21T06:23:33;7.22;;;5.10;;
20828;SDS011;10575;50.124;8.582;2022-08-21T06:26:03;7.75;;;5.35;;
20828;SDS011;10575;50.124;8.582;2022-08-21T06:28:30;8.27;;;5.03;;
20828;SDS011;10575;50.124;8.582;2022-08-21T06:30:56;9.00;;;5.20;;
20828;SDS011;10575;50.124;8.582;2022-08-21T06:33:22;10.10;;;5.35;;
20828;SDS011;10575;50.124;8.582;2022-08-21T06:35:48;5.43;;;4.80;;
20828;SDS011;10575;50.124;8.582;2022-08-21T06:38:14;9.25;;;5.78;;
20828;SDS011;10575;50.124;8.582;2022-08-21T06:40:40;8.77;;;5.20;;
20828;SDS011;10575;50.124;8.582;2022-08-21T06:43:07;7.93;;;5.53;;
20828;SDS011;10575;50.124;8.582;2022-08-21T06:45:34;8.70;;;4.72;;
20828;SDS011;10575;50.124;8.582;2022-08-21T06:48:00;7.20;;;4.97;;
20828;SDS011;10575;50.124;8.582;2022-08-21T06:50:25;8.63;;;5.57;;
20828;SDS011;10575;50.124;8.582;2022-08-21T06:52:57;7.60;;;5.65;;
20828;SDS011;10575;50.124;8.582;2022-08-21T06:55:24;8.68;;;4.75;;
20828;SDS011;10575;50.124;8.582;2022-08-21T06:57:50;8.70;;;4.95;;
20828;SDS011;10575;50.124;8.582;2022-08-21T07:00:15;10.73;;;5.25;;
20828;SDS011;10575;50.124;8.582;2022-08-21T07:02:41;9.55;;;5.05;;
20828;SDS011;10575;50.124;8.582;2022-08-21T07:05:06;7.72;;;5.28;;
20828;SDS011;10575;50.124;8.582;2022-08-21T07:07:32;9.95;;;6.18;;
20828;SDS011;10575;50.124;8.582;2022-08-21T07:09:57;6.63;;;4.85;;
20828;SDS011;10575;50.124;8.582;2022-08-21T07:12:23;7.68;;;4.32;;
20828;SDS011;10575;50.124;8.582;2022-08-21T07:14:48;6.75;;;4.93;;
20828;SDS011;10575;50.124;8.582;2022-08-21T07:17:14;8.25;;;5.68;;
20828;SDS011;10575;50.124;8.582;2022-08-21T07:19:39;7.13;;;4.30;;
20828;SDS011;10575;50.124;8.582;2022-08-21T07:22:05;7.57;;;4.97;;
20828;SDS011;10575;50.124;8.582;2022-08-21T07:24:31;7.53;;;4.57;;
20828;SDS011;10575;50.124;8.582;2022-08-21T07:26:57;8.23;;;4.65;;
20828;SDS011;10575;50.124;8.582;2022-08-21T07:29:22;7.65;;;5.72;;
20828;SDS011;10575;50.124;8.582;2022-08-21T07:31:48;6.97;;;5.05;;
20828;SDS011;10575;50.124;8.582;2022-08-21T07:34:13;9.93;;;5.50;;
20828;SDS011;10575;50.124;8.582;2022-08-21T07:36:39;8.07;;;4.00;;
20828;SDS011;10575;50.124;8.582;2022-08-21T07:39:05;7.68;;;4.88;;
20828;SDS011;10575;50.124;8.582;2022-08-21T07:41:30;6.28;;;4.70;;
20828;SDS011;10575;50.124;8.582;2022-08-21T07:43:57;5.85;;;4.55;;
20828;SDS011;10575;50.124;8.582;2022-08-21T07:46:23;6.22;;;3.92;;
20828;SDS011;10575;50.124;8.582;2022-08-21T07:48:50;8.85;;;4.60;;
20828;SDS011;10575;50.124;8.582;2022-08-21T07:51:16;5.88;;;4.97;;
20828;SDS011;10575;50.124;8.582;2022-08-21T07:53:42;8.48;;;4.50;;
20828;SDS011;10575;50.124;8.582;2022-08-21T07:56:13;7.57;;;5.55;;
20828;SDS011;10575;50.124;8.582;2022-08-21T07:58:38;6.72;;;4.90;;
20828;SDS011;10575;50.124;8.582;2022-08-21T08:01:05;5.68;;;4.38;;
20828;SDS011;10575;50.124;8.582;2022-08-21T08:03:31;4.10;;;3.70;;
20828;SDS011;10575;50.124;8.582;2022-08-21T08:05:57;4.95;;;4.07;;
20828;SDS011;10575;50.124;8.582;2022-08-21T08:08:23;6.85;;;5.00;;
20828;SDS011;10575;50.124;8.582;2022-08-21T08:10:49;5.47;;;4.68;;
20828;SDS011;10575;50.124;8.582;2022-08-21T08:13:15;4.32;;;3.72;;
20828;SDS011;10575;50.124;8.582;2022-08-21T08:15:41;4.70;;;3.60;;
20828;SDS011;10575;50.124;8.582;2022-08-21T08:18:06;4.68;;;4.22;;
20828;SDS011;10575;50.124;8.582;2022-08-21T08:20:32;4.75;;;3.72;;
20828;SDS011;10575;50.124;8.582;2022-08-21T08:22:58;4.18;;;3.20;;
20828;SDS011;10575;50.124;8.582;2022-08-21T08:25:24;4.22;;;3.83;;
20828;SDS011;10575;50.124;8.582;2022-08-21T08:27:50;8.05;;;4.70;;
20828;SDS011;10575;50.124;8.582;2022-08-21T08:30:17;5.95;;;4.32;;
20828;SDS011;10575;50.124;8.582;2022-08-21T08:32:45;5.47;;;3.67;;
20828;SDS011;10575;50.124;8.582;2022-08-21T08:35:11;4.57;;;3.80;;
20828;SDS011;10575;50.124;8.582;2022-08-21T08:37:37;8.15;;;3.90;;
20828;SDS011;10575;50.124;8.582;2022-08-21T08:40:05;4.13;;;3.67;;
20828;SDS011;10575;50.124;8.582;2022-08-21T08:42:38;6.13;;;4.80;;
20828;SDS011;10575;50.124;8.582;2022-08-21T08:45:08;4.63;;;3.83;;
20828;SDS011;10575;50.124;8.582;2022-08-21T08:47:38;3.83;;;3.30;;
20828;SDS011;10575;50.124;8.582;2022-08-21T08:50:14;4.90;;;3.60;;
20828;SDS011;10575;50.124;8.582;2022-08-21T08:52:51;4.57;;;4.03;;
20828;SDS011;10575;50.124;8.582;2022-08-21T08:55:33;5.30;;;3.28;;
20828;SDS011;10575;50.124;8.582;2022-08-21T08:58:02;7.07;;;4.25;;
20828;SDS011;10575;50.124;8.582;2022-08-21T09:00:28;4.78;;;3.75;;
20828;SDS011;10575;50.124;8.582;2022-08-21T09:02:56;8.18;;;3.88;;
20828;SDS011;10575;50.124;8.582;2022-08-21T09:05:25;4.60;;;3.67;;
20828;SDS011;10575;50.124;8.582;2022-08-21T09:13:45;6.13;;;3.10;;
20828;SDS011;10575;50.124;8.582;2022-08-21T09:16:24;4.05;;;2.55;;
20828;SDS011;10575;50.124;8.582;2022-08-21T09:21:44;4.15;;;2.50;;
20828;SDS011;10575;50.124;8.582;2022-08-21T09:24:29;3.85;;;2.67;;
20828;SDS011;10575;50.124;8.582;2022-08-21T09:26:59;6.97;;;3.20;;
20828;SDS011;10575;50.124;8.582;2022-08-21T09:29:33;5.15;;;3.75;;
20828;SDS011;10575;50.124;8.582;2022-08-21T09:32:03;7.28;;;3.25;;
20828;SDS011;10575;50.124;8.582;2022-08-21T09:34:33;6.00;;;3.95;;
20828;SDS011;10575;50.124;8.582;2022-08-21T09:36:59;4.93;;;3.80;;
20828;SDS011;10575;50.124;8.582;2022-08-21T09:39:26;3.53;;;3.13;;
20828;SDS011;10575;50.124;8.582;2022-08-21T09:41:55;8.45;;;3.80;;
20828;SDS011;10575;50.124;8.582;2022-08-21T09:44:30;7.22;;;3.92;;
20828;SDS011;10575;50.124;8.582;2022-08-21T09:46:58;6.22;;;3.40;;
20828;SDS011;10575;50.124;8.582;2022-08-21T09:49:28;4.40;;;3.55;;
20828;SDS011;10575;50.124;8.582;2022-08-21T09:51:55;6.53;;;3.50;;
20828;SDS011;10575;50.124;8.582;2022-08-21T09:54:24;6.25;;;3.75;;
20828;SDS011;10575;50.124;8.582;2022-08-21T09:59:44;5.30;;;3.50;;
20828;SDS011;10575;50.124;8.582;2022-08-21T10:02:31;6.72;;;4.00;;
20828;SDS011;10575;50.124;8.582;2022-08-21T10:05:14;6.07;;;3.80;;
20828;SDS011;10575;50.124;8.582;2022-08-21T10:07:42;7.15;;;3.67;;
20828;SDS011;10575;50.124;8.582;2022-08-21T10:12:48;7.18;;;3.70;;
20828;SDS011;10575;50.124;8.582;2022-08-21T10:47:57;5.47;;;3.70;;
20828;SDS011;10575;50.124;8.582;2022-08-21T10:50:45;4.22;;;3.50;;
20828;SDS011;10575;50.124;8.582;2022-08-21T10:56:05;6.57;;;3.58;;
20828;SDS011;10575;50.124;8.582;2022-08-21T11:01:32;8.90;;;3.63;;
20828;SDS011;10575;50.124;8.582;2022-08-21T11:04:11;5.18;;;3.17;;
20828;SDS011;10575;50.124;8.582;2022-08-21T11:06:42;8.65;;;3.47;;
20828;SDS011;10575;50.124;8.582;2022-08-21T11:09:14;9.18;;;3.90;;
20828;SDS011;10575;50.124;8.582;2022-08-21T11:14:40;5.35;;;2.60;;
20828;SDS011;10575;50.124;8.582;2022-08-21T11:17:15;5.63;;;2.85;;
20828;SDS011;10575;50.124;8.582;2022-08-21T11:19:45;5.15;;;2.67;;
20828;SDS011;10575;50.124;8.582;2022-08-21T11:22:40;6.35;;;3.05;;
20828;SDS011;10575;50.124;8.582;2022-08-21T11:25:20;6.43;;;2.88;;
20828;SDS011;10575;50.124;8.582;2022-08-21T11:27:56;4.90;;;3.08;;
20828;SDS011;10575;50.124;8.582;2022-08-21T11:30:27;6.57;;;3.70;;
20828;SDS011;10575;50.124;8.582;2022-08-21T11:33:13;6.57;;;3.38;;
20828;SDS011;10575;50.124;8.582;2022-08-21T11:44:15;6.72;;;3.00;;
20828;SDS011;10575;50.124;8.582;2022-08-21T11:46:48;8.50;;;3.40;;
20828;SDS011;10575;50.124;8.582;2022-08-21T11:49:42;5.68;;;2.78;;
20828;SDS011;10575;50.124;8.582;2022-08-21T11:52:30;5.70;;;3.17;;
20828;SDS011;10575;50.124;8.582;2022-08-21T11:55:06;6.38;;;3.40;;
20828;SDS011;10575;50.124;8.582;2022-08-21T12:00:13;8.25;;;3.35;;
20828;SDS011;10575;50.124;8.582;2022-08-21T12:02:47;4.40;;;3.20;;
20828;SDS011;10575;50.124;8.582;2022-08-21T12:08:01;6.15;;;3.00;;
20828;SDS011;10575;50.124;8.582;2022-08-21T12:10:39;7.13;;;2.90;;
20828;SDS011;10575;50.124;8.582;2022-08-21T12:13:24;5.15;;;2.83;;
20828;SDS011;10575;50.124;8.582;2022-08-21T12:16:14;6.85;;;2.85;;
20828;SDS011;10575;50.124;8.582;2022-08-21T12:19:02;5.82;;;3.10;;
20828;SDS011;10575;50.124;8.582;2022-08-21T12:21:32;5.20;;;2.90;;
20828;SDS011;10575;50.124;8.582;2022-08-21T12:24:16;5.35;;;2.88;;
20828;SDS011;10575;50.124;8.582;2022-08-21T12:34:21;5.10;;;3.13;;
20828;SDS011;10575;50.124;8.582;2022-08-21T12:36:53;4.80;;;3.03;;
20828;SDS011;10575;50.124;8.582;2022-08-21T12:39:24;5.78;;;2.88;;
20828;SDS011;10575;50.124;8.582;2022-08-21T12:44:46;5.28;;;3.00;;
20828;SDS011;10575;50.124;8.582;2022-08-21T12:50:24;6.93;;;3.28;;
20828;SDS011;10575;50.124;8.582;2022-08-21T12:55:48;5.43;;;3.20;;
20828;SDS011;10575;50.124;8.582;2022-08-21T12:58:23;8.10;;;3.42;;
20828;SDS011;10575;50.124;8.582;2022-08-21T13:00:50;4.40;;;2.90;;
20828;SDS011;10575;50.124;8.582;2022-08-21T13:03:18;3.08;;;2.40;;
20828;SDS011;10575;50.124;8.582;2022-08-21T13:05:44;4.45;;;3.03;;
20828;SDS011;10575;50.124;8.582;2022-08-21T13:08:11;3.83;;;2.97;;
20828;SDS011;10575;50.124;8.582;2022-08-21T13:10:39;6.65;;;3.03;;
20828;SDS011;10575;50.124;8.582;2022-08-21T13:13:07;5.47;;;3.00;;
20828;SDS011;10575;50.124;8.582;2022-08-21T13:15:44;7.45;;;3.00;;
20828;SDS011;10575;50.124;8.582;2022-08-21T13:18:18;5.22;;;2.80;;
20828;SDS011;10575;50.124;8.582;2022-08-21T13:20:45;5.60;;;2.92;;
20828;SDS011;10575;50.124;8.582;2022-08-21T13:23:20;5.50;;;2.88;;
20828;SDS011;10575;50.124;8.582;2022-08-21T13:25:49;5.28;;;3.10;;
20828;SDS011;10575;50.124;8.582;2022-08-21T13:28:15;7.20;;;2.83;;
20828;SDS011;10575;50.124;8.582;2022-08-21T13:33:11;4.90;;;2.83;;
20828;SDS011;10575;50.124;8.582;2022-08-21T13:36:01;4.20;;;2.50;;
20828;SDS011;10575;50.124;8.582;2022-08-21T13:38:29;4.72;;;2.70;;
20828;SDS011;10575;50.124;8.582;2022-08-21T13:43:34;4.82;;;2.63;;
20828;SDS011;10575;50.124;8.582;2022-08-21T13:46:01;3.78;;;1.92;;
20828;SDS011;10575;50.124;8.582;2022-08-21T13:48:33;5.15;;;3.42;;
20828;SDS011;10575;50.124;8.582;2022-08-21T13:50:59;6.35;;;2.50;;
20828;SDS011;10575;50.124;8.582;2022-08-21T13:53:30;5.00;;;2.78;;
20828;SDS011;10575;50.124;8.582;2022-08-21T13:55:58;7.88;;;2.90;;
20828;SDS011;10575;50.124;8.582;2022-08-21T13:58:26;3.55;;;2.63;;
20828;SDS011;10575;50.124;8.582;2022-08-21T14:00:56;4.38;;;2.45;;
20828;SDS011;10575;50.124;8.582;2022-08-21T14:03:32;7.90;;;2.78;;
20828;SDS011;10575;50.124;8.582;2022-08-21T14:06:19;4.28;;;2.10;;
20828;SDS011;10575;50.124;8.582;2022-08-21T14:08:51;4.53;;;2.53;;
20828;SDS011;10575;50.124;8.582;2022-08-21T14:11:26;4.03;;;2.10;;
20828;SDS011;10575;50.124;8.582;2022-08-21T14:13:58;4.32;;;2.10;;
20828;SDS011;10575;50.124;8.582;2022-08-21T14:16:40;5.45;;;3.08;;
20828;SDS011;10575;50.124;8.582;2022-08-21T14:21:46;4.25;;;2.13;;
20828;SDS011;10575;50.124;8.582;2022-08-21T14:24:29;4.90;;;2.53;;
20828;SDS011;10575;50.124;8.582;2022-08-21T14:26:56;4.00;;;2.10;;
20828;SDS011;10575;50.124;8.582;2022-08-21T14:29:28;6.55;;;2.38;;
20828;SDS011;10575;50.124;8.582;2022-08-21T14:32:08;4.93;;;2.15;;
20828;SDS011;10575;50.124;8.582;2022-08-21T14:34:55;5.30;;;2.50;;
20828;SDS011;10575;50.124;8.582;2022-08-21T14:37:22;3.80;;;2.00;;
20828;SDS011;10575;50.124;8.582;2022-08-21T14:39:48;3.05;;;2.03;;
20828;SDS011;10575;50.124;8.582;2022-08-21T14:42:14;3.65;;;2.17;;
20828;SDS011;10575;50.124;8.582;2022-08-21T14:44:39;4.00;;;2.17;;
20828;SDS011;10575;50.124;8.582;2022-08-21T14:47:06;7.20;;;2.45;;
20828;SDS011;10575;50.124;8.582;2022-08-21T14:49:34;4.10;;;2.42;;
20828;SDS011;10575;50.124;8.582;2022-08-21T14:51:59;4.70;;;2.17;;
20828;SDS011;10575;50.124;8.582;2022-08-21T14:54:28;4.97;;;2.20;;
20828;SDS011;10575;50.124;8.582;2022-08-21T14:56:55;3.10;;;1.88;;
20828;SDS011;10575;50.124;8.582;2022-08-21T14:59:23;3.97;;;2.08;;
20828;SDS011;10575;50.124;8.582;2022-08-21T15:01:50;5.47;;;2.38;;
20828;SDS011;10575;50.124;8.582;2022-08-21T15:04:17;4.28;;;1.90;;
20828;SDS011;10575;50.124;8.582;2022-08-21T15:06:42;4.55;;;2.10;;
20828;SDS011;10575;50.124;8.582;2022-08-21T15:09:08;5.05;;;1.85;;
20828;SDS011;10575;50.124;8.582;2022-08-21T15:11:33;4.70;;;1.60;;
20828;SDS011;10575;50.124;8.582;2022-08-21T15:14:00;5.18;;;2.35;;
20828;SDS011;10575;50.124;8.582;2022-08-21T15:16:28;3.85;;;2.05;;
20828;SDS011;10575;50.124;8.582;2022-08-21T15:18:55;4.45;;;2.03;;
20828;SDS011;10575;50.124;8.582;2022-08-21T15:21:21;4.07;;;1.90;;
20828;SDS011;10575;50.124;8.582;2022-08-21T15:23:46;3.85;;;1.65;;
20828;SDS011;10575;50.124;8.582;2022-08-21T15:26:12;2.47;;;1.77;;
20828;SDS011;10575;50.124;8.582;2022-08-21T15:28:38;2.67;;;1.58;;
20828;SDS011;10575;50.124;8.582;2022-08-21T15:31:04;3.72;;;1.98;;
20828;SDS011;10575;50.124;8.582;2022-08-21T15:33:30;5.10;;;1.70;;
20828;SDS011;10575;50.124;8.582;2022-08-21T15:35:56;4.70;;;1.95;;
20828;SDS011;10575;50.124;8.582;2022-08-21T15:38:22;3.72;;;1.90;;
20828;SDS011;10575;50.124;8.582;2022-08-21T15:40:47;3.83;;;1.77;;
20828;SDS011;10575;50.124;8.582;2022-08-21T15:43:25;3.65;;;1.95;;
20828;SDS011;10575;50.124;8.582;2022-08-21T15:45:54;5.85;;;2.47;;
20828;SDS011;10575;50.124;8.582;2022-08-21T15:48:20;4.38;;;2.25;;
20828;SDS011;10575;50.124;8.582;2022-08-21T15:50:46;5.78;;;2.00;;
20828;SDS011;10575;50.124;8.582;2022-08-21T15:53:12;2.70;;;1.90;;
20828;SDS011;10575;50.124;8.582;2022-08-21T15:55:38;2.63;;;1.60;;
20828;SDS011;10575;50.124;8.582;2022-08-21T15:58:06;3.50;;;2.05;;
20828;SDS011;10575;50.124;8.582;2022-08-21T16:00:33;2.63;;;1.50;;
20828;SDS011;10575;50.124;8.582;2022-08-21T16:03:00;3.25;;;2.00;;
20828;SDS011;10575;50.124;8.582;2022-08-21T16:05:29;3.42;;;1.77;;
20828;SDS011;10575;50.124;8.582;2022-08-21T16:07:54;4.05;;;1.88;;
20828;SDS011;10575;50.124;8.582;2022-08-21T16:10:21;2.72;;;1.65;;
20828;SDS011;10575;50.124;8.582;2022-08-21T16:12:52;4.60;;;2.20;;
20828;SDS011;10575;50.124;8.582;2022-08-21T16:15:22;4.30;;;1.60;;
20828;SDS011;10575;50.124;8.582;2022-08-21T16:17:48;2.78;;;1.80;;
20828;SDS011;10575;50.124;8.582;2022-08-21T16:20:18;4.13;;;1.95;;
20828;SDS011;10575;50.124;8.582;2022-08-21T16:22:48;3.28;;;1.92;;
20828;SDS011;10575;50.124;8.582;2022-08-21T16:25:14;3.45;;;1.90;;
20828;SDS011;10575;50.124;8.582;2022-08-21T16:27:41;3.85;;;1.80;;